Time;durP1;ratioP1;P1;durP2;ratioP2;P2;SDS_P1;SDS_P2;PMS_P1;PMS_P2;Temp;Humidity;BMP_temperature;BMP_pressure;BME280_temperature;BME280_humidity;BME280_pressure;Samples;Min_cycle;Max_cycle;Signal;HPM_P1;HPM_P2
2021/06/06 00:00:20;;;;;;;3.25;2.85;;;;;;;12.79;69.17;96776.51;1712973;83;20941;-76
2021/06/06 00:02:49;;;;;;;3.25;2.80;;;;;;;12.75;69.43;96772.17;1688476;83;20993;-76
2021/06/06 00:05:15;;;;;;;3.40;3.10;;;;;;;12.70;69.13;96775.03;1721100;83;21001;-76
2021/06/06 00:07:41;;;;;;;3.37;3.08;;;;;;;12.68;69.24;96776.48;1712982;83;21300;-76
2021/06/06 00:10:08;;;;;;;3.62;2.80;;;;;;;12.69;69.04;96771.61;1722467;83;20956;-76
2021/06/06 00:12:34;;;;;;;2.92;2.72;;;;;;;12.68;69.25;96773.08;1763872;80;21250;-76
2021/06/06 00:15:00;;;;;;;3.55;2.85;;;;;;;12.62;69.68;96768.12;1769624;80;20885;-76
2021/06/06 00:17:25;;;;;;;3.30;3.00;;;;;;;12.58;69.59;96767.69;1779231;80;20905;-77
2021/06/06 00:19:51;;;;;;;3.30;2.65;;;;;;;12.54;69.51;96776.06;1770993;80;21258;-76
2021/06/06 00:22:17;;;;;;;3.22;2.92;;;;;;;12.52;69.66;96773.61;1762436;81;20930;-77
2021/06/06 00:24:43;;;;;;;2.80;2.60;;;;;;;12.51;69.66;96777.22;1744010;80;20978;-76
2021/06/06 00:27:09;;;;;;;4.10;2.80;;;;;;;12.50;69.54;96780.01;1733360;81;20972;-76
2021/06/06 00:29:35;;;;;;;3.10;2.80;;;;;;;12.48;69.61;96785.41;1738659;80;21270;-76
2021/06/06 00:32:01;;;;;;;3.15;2.85;;;;;;;12.47;69.86;96789.01;1723319;80;21053;-76
2021/06/06 00:34:26;;;;;;;3.62;3.12;;;;;;;12.44;69.83;96786.77;1744774;81;21047;-77
2021/06/06 00:36:53;;;;;;;3.10;2.80;;;;;;;12.43;70.19;96783.05;1736992;80;20968;-76
2021/06/06 00:39:19;;;;;;;3.40;3.02;;;;;;;12.45;70.07;96784.97;1737785;80;20967;-76
2021/06/06 00:41:45;;;;;;;3.62;3.08;;;;;;;12.45;70.33;96776.66;1736070;80;20921;-76
2021/06/06 00:44:11;;;;;;;3.02;2.72;;;;;;;12.46;70.32;96776.97;1716497;81;20952;-76
2021/06/06 00:46:37;;;;;;;3.40;2.80;;;;;;;12.44;70.03;96776.34;1727070;80;21231;-76
2021/06/06 00:49:05;;;;;;;3.17;2.72;;;;;;;12.44;70.10;96776.84;1735632;81;20932;-76
2021/06/06 00:51:49;;;;;;;3.08;2.77;;;;;;;12.41;70.26;96781.94;1726543;80;20944;-76
2021/06/06 00:54:32;;;;;;;3.55;3.25;;;;;;;12.39;70.47;96773.49;1693354;82;20937;-76
2021/06/06 00:57:14;;;;;;;2.83;2.37;;;;;;;12.38;70.42;96778.39;1687886;83;21253;-75
2021/06/06 00:59:47;;;;;;;2.58;2.37;;;;;;;12.40;70.20;96776.41;1675713;84;20972;-76
2021/06/06 01:02:13;;;;;;;3.22;2.92;;;;;;;12.42;69.95;96777.53;1722773;81;21269;-76
2021/06/06 01:04:39;;;;;;;2.95;2.58;;;;;;;12.40;69.86;96773.00;1739303;81;21071;-76
2021/06/06 01:07:08;;;;;;;3.15;2.85;;;;;;;12.39;69.92;96774.80;1742885;81;20953;-78
2021/06/06 01:09:33;;;;;;;2.98;2.67;;;;;;;12.39;70.00;96777.90;1734860;80;20971;-78
2021/06/06 01:12:20;;;;;;;3.87;2.80;;;;;;;12.33;70.45;96771.10;1734608;81;20968;-78
2021/06/06 01:14:55;;;;;;;3.08;2.77;;;;;;;12.30;70.10;96771.97;1719650;82;20968;-79
2021/06/06 01:17:26;;;;;;;4.12;2.80;;;;;;;12.26;70.14;96772.84;1739184;80;20971;-79
2021/06/06 01:20:12;;;;;;;3.17;2.85;;;;;;;12.26;69.99;96766.33;1737113;81;21334;-79
2021/06/06 01:23:05;;;;;;;3.42;2.70;;;;;;;12.26;69.96;96768.13;1747043;80;21174;-79
2021/06/06 01:25:41;;;;;;;2.87;2.58;;;;;;;12.27;69.76;96765.83;1763139;81;21036;-79
2021/06/06 01:28:21;;;;;;;3.05;2.58;;;;;;;12.25;69.78;96766.51;1773956;80;21253;-79
2021/06/06 01:30:50;;;;;;;3.30;2.60;;;;;;;12.23;69.84;96773.70;1697229;80;21031;-79
2021/06/06 01:33:30;;;;;;;3.52;2.52;;;;;;;12.19;69.81;96778.94;1770098;81;21013;-79
2021/06/06 01:36:03;;;;;;;3.02;2.80;;;;;;;12.16;70.02;96772.80;1772068;80;21279;-76
2021/06/06 01:38:50;;;;;;;2.70;2.50;;;;;;;12.14;70.44;96772.17;1763873;80;20940;-76
2021/06/06 01:41:20;;;;;;;3.35;2.35;;;;;;;12.11;70.36;96769.94;1768617;80;20975;-76
2021/06/06 01:43:52;;;;;;;2.92;2.55;;;;;;;12.11;70.43;96772.55;1771757;80;21015;-76
2021/06/06 01:46:23;;;;;;;3.40;2.30;;;;;;;12.13;70.42;96767.95;1736283;80;21082;-76
2021/06/06 01:48:49;;;;;;;2.42;2.22;;;;;;;12.13;70.47;96770.56;1768881;80;20955;-76
2021/06/06 01:51:26;;;;;;;2.42;2.22;;;;;;;12.10;70.37;96773.53;1770921;81;21198;-76
2021/06/06 01:53:52;;;;;;;3.87;2.37;;;;;;;12.07;70.31;96779.92;1774535;80;20940;-76
2021/06/06 01:56:28;;;;;;;2.60;2.37;;;;;;;12.03;70.41;96781.25;1775815;80;21211;-76
2021/06/06 01:58:56;;;;;;;2.72;2.47;;;;;;;12.00;70.51;96780.31;1777343;80;20996;-76
2021/06/06 02:01:23;;;;;;;2.40;2.20;;;;;;;11.99;70.50;96782.11;1773466;80;21226;-76
2021/06/06 02:03:51;;;;;;;3.12;2.83;;;;;;;12.01;70.31;96778.83;1770472;80;20919;-76
2021/06/06 02:06:18;;;;;;;3.30;2.77;;;;;;;12.01;70.40;96785.83;1772778;80;20962;-76
2021/06/06 02:08:45;;;;;;;2.80;2.50;;;;;;;11.98;70.27;96777.89;1774325;80;20964;-76
2021/06/06 02:11:21;;;;;;;3.70;3.00;;;;;;;11.97;70.46;96783.28;1759397;80;20920;-76
2021/06/06 02:13:51;;;;;;;4.15;2.50;;;;;;;11.96;70.65;96782.97;1777750;80;20964;-76
2021/06/06 02:16:21;;;;;;;3.00;2.75;;;;;;;11.93;70.69;96777.63;1777764;80;21004;-79
2021/06/06 02:18:47;;;;;;;2.98;2.55;;;;;;;11.91;70.75;96777.50;1764326;80;21004;-79
2021/06/06 02:21:15;;;;;;;3.25;2.45;;;;;;;11.90;70.82;96777.19;1765037;80;20932;-79
2021/06/06 02:23:43;;;;;;;3.62;2.72;;;;;;;11.89;70.74;96775.08;1757861;81;20964;-79
2021/06/06 02:26:37;;;;;;;3.55;2.98;;;;;;;11.89;70.83;96775.08;1774380;80;20956;-79
2021/06/06 02:29:24;;;;;;;3.62;3.30;;;;;;;11.88;71.04;96775.27;1767609;80;21340;-79
2021/06/06 02:32:13;;;;;;;3.02;2.83;;;;;;;11.85;71.11;96778.20;1773155;81;21293;-79
2021/06/06 02:35:11;;;;;;;3.40;2.50;;;;;;;11.83;71.41;96780.98;1754096;81;20994;-79
2021/06/06 02:38:03;;;;;;;3.40;2.92;;;;;;;11.80;71.61;96780.05;1761991;80;21325;-79
2021/06/06 02:40:39;;;;;;;3.10;2.42;;;;;;;11.78;71.75;96774.19;1763999;80;21031;-79
2021/06/06 02:43:10;;;;;;;3.22;2.92;;;;;;;11.79;71.95;96776.33;1779662;80;20926;-79
2021/06/06 02:45:35;;;;;;;3.75;2.55;;;;;;;11.77;72.04;96771.27;1780682;81;20936;-79
2021/06/06 02:48:06;;;;;;;3.00;2.70;;;;;;;11.76;72.08;96773.56;1772876;80;20921;-79
2021/06/06 02:50:36;;;;;;;3.62;2.92;;;;;;;11.75;72.12;96771.14;1775006;81;21277;-78
2021/06/06 02:53:12;;;;;;;2.83;2.52;;;;;;;11.73;72.06;96773.92;1769670;80;20920;-79
2021/06/06 02:55:43;;;;;;;2.67;2.45;;;;;;;11.72;72.16;96773.61;1760591;80;20927;-79
2021/06/06 02:58:20;;;;;;;6.62;2.60;;;;;;;11.71;72.15;96777.17;1770805;81;21370;-78
2021/06/06 03:00:50;;;;;;;3.65;2.72;;;;;;;11.71;72.24;96776.71;1766965;81;20944;-76
2021/06/06 03:03:31;;;;;;;3.15;2.85;;;;;;;11.73;72.38;96774.73;1768270;81;21400;-76
2021/06/06 03:05:58;;;;;;;3.83;2.80;;;;;;;11.73;72.92;96777.83;1743254;81;21282;-76
2021/06/06 03:08:24;;;;;;;3.42;3.15;;;;;;;11.71;72.64;96777.17;1763344;81;20920;-76
2021/06/06 03:10:50;;;;;;;2.83;2.60;;;;;;;11.70;72.65;96778.97;1761993;81;20911;-76
2021/06/06 03:13:33;;;;;;;2.87;2.42;;;;;;;11.70;72.74;96781.58;1772336;80;20972;-76
2021/06/06 03:16:02;;;;;;;1.95;1.75;;;;;;;11.71;72.98;96782.38;1762771;81;21049;-77
2021/06/06 03:18:31;;;;;;;2.40;2.00;;;;;;;11.71;72.82;96779.31;1762237;81;21563;-76
2021/06/06 03:21:09;;;;;;;2.30;2.10;;;;;;;11.73;72.75;96779.13;1772137;81;21021;-76
2021/06/06 03:23:34;;;;;;;2.65;2.30;;;;;;;11.73;72.67;96789.05;1768571;81;21289;-76
2021/06/06 03:26:09;;;;;;;2.40;2.02;;;;;;;11.72;72.77;96789.23;1770219;81;20962;-76
2021/06/06 03:28:38;;;;;;;2.72;2.20;;;;;;;11.70;72.90;96788.58;1778364;81;20987;-76
2021/06/06 03:31:08;;;;;;;2.40;2.20;;;;;;;11.69;72.98;96787.77;1765091;81;20947;-76
2021/06/06 03:33:52;;;;;;;2.70;2.22;;;;;;;11.70;73.18;96792.48;1777974;80;20977;-76
2021/06/06 03:36:23;;;;;;;2.45;2.25;;;;;;;11.71;73.37;96791.49;1778282;81;20976;-76
2021/06/06 03:38:50;;;;;;;2.95;2.75;;;;;;;11.74;73.27;96789.86;1776703;81;20968;-76
2021/06/06 03:41:16;;;;;;;3.83;2.80;;;;;;;11.77;73.37;96791.30;1772629;80;20972;-76
2021/06/06 03:43:41;;;;;;;3.58;2.98;;;;;;;11.76;73.41;96785.28;1774731;81;20905;-76
2021/06/06 03:46:07;;;;;;;3.40;3.10;;;;;;;11.77;73.53;96786.89;1776787;81;20913;-76
2021/06/06 03:48:33;;;;;;;3.22;2.92;;;;;;;11.76;73.64;96793.09;1778912;80;20904;-76
2021/06/06 03:50:59;;;;;;;2.90;2.70;;;;;;;11.77;73.91;96789.99;1771993;80;20956;-76
2021/06/06 03:53:25;;;;;;;2.87;2.65;;;;;;;11.80;73.98;96788.36;1778120;80;20956;-76
2021/06/06 03:55:51;;;;;;;3.08;2.70;;;;;;;11.85;73.97;96789.42;1765718;81;21247;-76
2021/06/06 03:58:18;;;;;;;2.90;2.70;;;;;;;11.91;74.04;96786.13;1777565;81;20865;-76
2021/06/06 04:00:48;;;;;;;3.08;2.77;;;;;;;11.96;74.13;96790.28;1765422;80;21024;-76
2021/06/06 04:03:16;;;;;;;3.20;2.83;;;;;;;11.97;74.43;96785.39;1774580;80;20959;-76
2021/06/06 04:05:41;;;;;;;3.22;2.72;;;;;;;12.00;74.36;96791.53;1775696;80;21350;-76
2021/06/06 04:08:07;;;;;;;2.75;2.55;;;;;;;12.01;74.58;96789.24;1774749;80;20975;-76
2021/06/06 04:10:33;;;;;;;3.85;2.90;;;;;;;12.02;74.89;96791.35;1770494;80;20877;-76
2021/06/06 04:12:59;;;;;;;2.80;2.42;;;;;;;12.03;74.97;96792.97;1772904;80;20965;-76
2021/06/06 04:15:25;;;;;;;3.17;2.30;;;;;;;12.07;74.91;96794.25;1765592;80;20891;-76
2021/06/06 04:17:51;;;;;;;3.22;2.40;;;;;;;12.11;75.09;96795.49;1770262;80;20883;-76
2021/06/06 04:20:18;;;;;;;3.17;2.87;;;;;;;12.17;75.21;96797.86;1770341;80;20949;-76
2021/06/06 04:22:44;;;;;;;2.75;2.55;;;;;;;12.20;75.25;96794.42;1778232;81;20885;-76
2021/06/06 04:25:13;;;;;;;2.62;2.42;;;;;;;12.25;75.17;96801.68;1766930;80;20988;-76
2021/06/06 04:27:38;;;;;;;2.83;2.55;;;;;;;12.27;75.49;96802.30;1766989;81;21407;-76
2021/06/06 04:30:06;;;;;;;3.77;2.98;;;;;;;12.27;75.58;96801.00;1741630;81;20888;-76
2021/06/06 04:32:32;;;;;;;4.28;3.30;;;;;;;12.28;75.71;96799.52;1761256;81;20942;-76
2021/06/06 04:34:58;;;;;;;3.22;2.80;;;;;;;12.34;75.88;96801.88;1746174;81;21281;-76
2021/06/06 04:37:24;;;;;;;3.50;3.20;;;;;;;12.39;75.78;96801.35;1752593;81;21003;-76
2021/06/06 04:39:50;;;;;;;3.10;2.80;;;;;;;12.44;75.72;96805.02;1763028;81;20956;-76
2021/06/06 04:42:18;;;;;;;3.50;3.20;;;;;;;12.49;75.72;96797.94;1751901;81;20878;-76
2021/06/06 04:44:43;;;;;;;3.05;2.72;;;;;;;12.56;75.73;96807.47;1762408;81;20939;-76
2021/06/06 04:47:09;;;;;;;3.65;3.33;;;;;;;12.60;75.69;96800.89;1757727;80;21213;-76
2021/06/06 04:49:38;;;;;;;3.33;3.02;;;;;;;12.64;75.86;96803.93;1751415;81;20880;-76
2021/06/06 04:52:05;;;;;;;4.05;3.02;;;;;;;12.68;75.86;96801.75;1748805;81;20919;-76
2021/06/06 04:54:30;;;;;;;4.12;3.05;;;;;;;12.73;75.90;96799.42;1758540;81;20920;-76
2021/06/06 04:56:56;;;;;;;2.65;2.45;;;;;;;12.79;75.80;96804.70;1769473;80;21000;-76
2021/06/06 04:59:23;;;;;;;4.12;3.17;;;;;;;12.86;76.00;96808.20;1768069;81;21035;-76
2021/06/06 05:01:48;;;;;;;3.58;2.83;;;;;;;12.93;76.10;96805.14;1766588;81;21253;-76
2021/06/06 05:04:14;;;;;;;3.30;3.00;;;;;;;12.98;76.06;96804.58;1768390;80;21191;-77
2021/06/06 05:06:40;;;;;;;3.47;3.17;;;;;;;13.03;76.36;96808.76;1755112;81;20945;-76
2021/06/06 05:09:06;;;;;;;4.25;3.85;;;;;;;13.06;76.40;96808.38;1766927;80;20940;-76
2021/06/06 05:11:32;;;;;;;4.10;3.62;;;;;;;13.13;76.36;96805.82;1751832;81;20959;-76
2021/06/06 05:13:58;;;;;;;3.60;3.30;;;;;;;13.23;76.42;96813.38;1772052;80;20910;-76
2021/06/06 05:16:23;;;;;;;4.40;3.80;;;;;;;13.30;76.51;96812.92;1771970;80;20905;-76
2021/06/06 05:18:49;;;;;;;4.35;3.70;;;;;;;13.38;76.56;96808.89;1756533;80;20952;-76
2021/06/06 05:21:15;;;;;;;4.55;4.00;;;;;;;13.46;76.60;96813.96;1770879;81;20878;-76
2021/06/06 05:23:41;;;;;;;4.50;4.10;;;;;;;13.51;76.50;96813.72;1772526;80;20954;-76
2021/06/06 05:26:07;;;;;;;4.33;3.87;;;;;;;13.59;76.39;96819.79;1766132;80;21016;-76
2021/06/06 05:28:35;;;;;;;4.92;4.50;;;;;;;13.68;76.26;96824.69;1766640;80;20968;-76
2021/06/06 05:31:01;;;;;;;4.45;3.83;;;;;;;13.81;76.12;96831.29;1748436;80;20876;-76
2021/06/06 05:33:27;;;;;;;5.65;4.85;;;;;;;13.91;76.17;96827.55;1755757;80;20961;-76
2021/06/06 05:35:53;;;;;;;4.47;4.08;;;;;;;14.00;75.81;96824.59;1774676;81;21032;-76
2021/06/06 05:38:22;;;;;;;4.53;4.12;;;;;;;14.06;76.03;96828.23;1774700;80;21024;-76
2021/06/06 05:40:47;;;;;;;3.55;3.25;;;;;;;14.10;76.06;96822.43;1760865;80;21015;-76
2021/06/06 05:43:13;;;;;;;3.70;3.33;;;;;;;14.18;75.98;96825.91;1758193;80;20949;-76
2021/06/06 05:45:39;;;;;;;5.53;3.37;;;;;;;14.26;76.09;96821.80;1768900;80;21010;-76
2021/06/06 05:48:06;;;;;;;4.28;3.87;;;;;;;14.35;76.05;96826.69;1756476;80;20971;-76
2021/06/06 05:50:35;;;;;;;4.62;4.10;;;;;;;14.42;76.00;96829.32;1772934;80;20956;-76
2021/06/06 05:53:01;;;;;;;4.37;3.98;;;;;;;14.46;76.13;96821.42;1773542;80;20921;-76
2021/06/06 05:55:27;;;;;;;5.65;4.85;;;;;;;14.52;76.08;96820.66;1763167;80;20932;-76
2021/06/06 05:57:52;;;;;;;4.80;4.17;;;;;;;14.59;76.07;96829.32;1765052;80;21238;-76
2021/06/06 06:00:26;;;;;;;4.35;3.95;;;;;;;14.66;76.34;96824.94;1771758;80;21265;-76
2021/06/06 06:02:52;;;;;;;4.50;4.10;;;;;;;14.77;76.19;96826.16;1771721;80;20961;-76
2021/06/06 06:05:18;;;;;;;7.10;6.40;;;;;;;14.88;76.21;96829.52;1722166;82;20973;-76
2021/06/06 06:07:44;;;;;;;5.50;4.60;;;;;;;15.00;75.64;96831.06;1767635;81;20945;-76
2021/06/06 06:10:11;;;;;;;7.78;6.97;;;;;;;15.11;75.63;96837.00;1733286;82;20913;-76
2021/06/06 06:12:37;;;;;;;5.95;5.45;;;;;;;15.23;75.23;96836.72;1755594;81;21404;-76
2021/06/06 06:15:07;;;;;;;7.53;6.83;;;;;;;15.36;75.42;96832.52;1750697;80;20964;-76
2021/06/06 06:17:32;;;;;;;6.75;6.15;;;;;;;15.45;75.35;96834.72;1759805;81;20918;-76
2021/06/06 06:19:58;;;;;;;7.62;6.92;;;;;;;15.57;75.41;96837.55;1752029;80;20933;-76
2021/06/06 06:22:24;;;;;;;6.25;5.72;;;;;;;15.72;75.08;96835.56;1761958;81;21206;-76
2021/06/06 06:24:50;;;;;;;5.50;5.00;;;;;;;15.87;74.99;96834.84;1774847;80;20933;-76
2021/06/06 06:27:16;;;;;;;8.50;7.70;;;;;;;16.02;74.81;96842.48;1761179;80;20961;-77
2021/06/06 06:29:49;;;;;;;8.33;7.53;;;;;;;16.13;74.44;96831.37;1755560;80;21063;-79
2021/06/06 06:32:17;;;;;;;6.87;5.78;;;;;;;16.26;74.32;96834.45;1751371;81;20925;-82
2021/06/06 06:34:42;;;;;;;8.20;7.40;;;;;;;16.32;74.78;96834.95;1772917;81;20905;-79
2021/06/06 06:37:08;;;;;;;7.28;6.58;;;;;;;16.36;73.97;96826.16;1770788;80;20959;-79
2021/06/06 06:39:34;;;;;;;8.95;8.18;;;;;;;16.48;73.57;96831.07;1768387;81;20921;-79
2021/06/06 06:42:00;;;;;;;8.18;7.37;;;;;;;16.62;73.23;96830.00;1720366;82;21277;-79
2021/06/06 06:44:28;;;;;;;8.78;7.35;;;;;;;16.73;72.95;96825.94;1699047;84;21029;-79
2021/06/06 06:46:54;;;;;;;7.75;7.05;;;;;;;16.82;72.51;96831.25;1761767;81;21275;-80
2021/06/06 06:49:20;;;;;;;7.58;6.78;;;;;;;16.91;72.27;96835.22;1764835;81;20941;-79
2021/06/06 06:51:45;;;;;;;7.67;6.95;;;;;;;17.02;72.20;96839.02;1770012;80;20870;-77
2021/06/06 06:54:11;;;;;;;6.67;5.80;;;;;;;17.08;71.79;96835.05;1765964;81;20877;-77
2021/06/06 06:56:37;;;;;;;7.28;6.58;;;;;;;17.17;71.88;96836.90;1760798;80;21192;-76
2021/06/06 06:59:02;;;;;;;6.90;6.33;;;;;;;17.15;71.82;96837.63;1760347;80;20933;-77
2021/06/06 07:01:28;;;;;;;6.78;6.17;;;;;;;17.19;72.16;96845.37;1761641;80;20937;-79
2021/06/06 07:03:54;;;;;;;6.65;6.05;;;;;;;17.17;72.35;96842.16;1765496;81;21231;-79
2021/06/06 07:06:20;;;;;;;7.05;6.45;;;;;;;17.21;72.27;96841.22;1751528;80;20989;-79
2021/06/06 07:08:46;;;;;;;7.25;6.47;;;;;;;17.15;71.40;96841.56;1769809;80;20882;-79
2021/06/06 07:11:15;;;;;;;6.53;5.92;;;;;;;17.07;71.55;96839.17;1757071;80;20912;-79
2021/06/06 07:13:41;;;;;;;7.53;6.03;;;;;;;17.00;71.65;96837.91;1765865;80;21563;-79
2021/06/06 07:16:09;;;;;;;6.92;6.22;;;;;;;16.94;71.83;96835.34;1758561;81;20925;-79
2021/06/06 07:18:36;;;;;;;6.42;5.83;;;;;;;16.97;71.81;96834.40;1750969;80;20956;-79
2021/06/06 07:21:12;;;;;;;5.75;5.22;;;;;;;16.95;72.03;96836.95;1755342;80;21336;-79
2021/06/06 07:23:38;;;;;;;6.08;5.47;;;;;;;16.89;72.53;96835.14;1765122;80;21252;-80
2021/06/06 07:26:08;;;;;;;7.55;5.55;;;;;;;16.94;72.91;96836.65;1770078;80;21017;-80
2021/06/06 07:28:34;;;;;;;5.95;5.42;;;;;;;16.93;72.64;96836.35;1768518;81;20996;-80
2021/06/06 07:31:01;;;;;;;5.78;5.28;;;;;;;16.94;73.11;96832.20;1769451;80;20989;-80
2021/06/06 07:33:33;;;;;;;6.53;6.03;;;;;;;16.96;73.25;96838.05;1754846;80;20925;-80
2021/06/06 07:35:59;;;;;;;6.10;5.50;;;;;;;17.02;73.59;96834.56;1767041;80;20935;-81
2021/06/06 07:38:25;;;;;;;9.90;7.50;;;;;;;17.07;73.18;96829.47;1759298;81;20964;-81
2021/06/06 07:40:52;;;;;;;7.33;6.37;;;;;;;17.08;72.88;96831.59;1747253;81;20948;-81
2021/06/06 07:43:18;;;;;;;6.33;5.53;;;;;;;17.15;72.08;96827.12;1767734;80;20968;-81
2021/06/06 07:45:44;;;;;;;7.10;6.40;;;;;;;17.17;71.50;96826.40;1704461;84;20962;-77
2021/06/06 07:48:10;;;;;;;6.45;5.85;;;;;;;17.23;71.63;96831.30;1702935;84;20931;-77
2021/06/06 07:50:40;;;;;;;7.72;7.03;;;;;;;17.25;71.78;96831.92;1713465;84;20941;-77
2021/06/06 07:53:05;;;;;;;7.20;6.60;;;;;;;17.20;71.54;96831.73;1775273;81;21238;-77
2021/06/06 07:55:31;;;;;;;6.87;6.10;;;;;;;17.25;71.54;96830.09;1775323;80;21008;-77
2021/06/06 07:57:57;;;;;;;7.70;6.08;;;;;;;17.36;71.26;96828.08;1770789;81;20969;-77
2021/06/06 08:00:39;;;;;;;6.42;5.70;;;;;;;17.61;72.23;96828.61;1756396;80;21348;-77
2021/06/06 08:03:05;;;;;;;;;;;;;;;17.79;71.68;96827.88;1777137;81;20973;-77
2021/06/06 08:05:31;;;;;;;7.22;6.22;;;;;;;17.75;70.97;96823.56;1776161;81;20125;-77
2021/06/06 08:07:56;;;;;;;7.28;6.58;;;;;;;17.67;70.66;96828.55;1774928;80;20980;-77
2021/06/06 08:10:25;;;;;;;6.87;6.28;;;;;;;17.64;70.33;96835.55;1778200;81;20894;-77
2021/06/06 08:12:51;;;;;;;7.97;7.22;;;;;;;17.72;69.94;96832.38;1777737;80;20924;-77
2021/06/06 08:15:16;;;;;;;7.00;6.30;;;;;;;17.71;69.69;96827.63;1748200;81;20916;-78
2021/06/06 08:17:42;;;;;;;7.03;6.42;;;;;;;17.72;70.35;96837.12;1762234;81;21246;-78
2021/06/06 08:20:14;;;;;;;7.20;6.60;;;;;;;17.92;69.84;96834.33;1776597;80;21031;-77
2021/06/06 08:22:40;;;;;;;7.58;6.85;;;;;;;18.27;69.28;96830.63;1777298;80;21000;-77
2021/06/06 08:25:11;;;;;;;6.83;6.10;;;;;;;18.59;69.34;96833.91;1779119;80;21037;-77
2021/06/06 08:27:36;;;;;;;6.78;6.08;;;;;;;18.51;68.13;96831.56;1777248;80;20960;-77
2021/06/06 08:30:07;;;;;;;7.00;6.17;;;;;;;18.39;68.81;96828.89;1781667;80;20908;-78
2021/06/06 08:32:33;;;;;;;6.57;5.97;;;;;;;18.39;68.70;96832.84;1772819;80;21231;-77
2021/06/06 08:34:59;;;;;;;6.33;5.72;;;;;;;18.45;69.11;96828.00;1781080;80;20983;-77
2021/06/06 08:37:24;;;;;;;6.72;6.10;;;;;;;18.48;68.68;96828.87;1763661;80;21020;-78
2021/06/06 08:39:50;;;;;;;5.87;5.37;;;;;;;18.78;67.94;96834.20;1774625;80;21060;-77
2021/06/06 08:42:27;;;;;;;6.78;6.17;;;;;;;19.02;67.31;96839.03;1766676;80;20972;-78
2021/06/06 08:45:05;;;;;;;6.40;5.80;;;;;;;18.95;66.64;96841.48;1722102;80;20983;-77
2021/06/06 08:47:31;;;;;;;6.70;5.83;;;;;;;18.88;66.13;96839.75;1781755;80;20945;-77
2021/06/06 08:50:10;;;;;;;6.80;6.00;;;;;;;19.23;65.94;96831.68;1756440;80;20913;-77
2021/06/06 08:52:59;;;;;;;6.12;5.60;;;;;;;19.25;64.48;96839.64;1776890;80;20933;-77
2021/06/06 08:55:52;;;;;;;5.92;5.30;;;;;;;19.21;65.82;96835.06;1768280;80;20940;-78
2021/06/06 08:58:37;;;;;;;7.20;6.37;;;;;;;19.52;66.20;96840.02;1780869;80;20992;-78
2021/06/06 09:01:22;;;;;;;6.30;5.70;;;;;;;19.91;65.16;96837.30;1781160;80;20921;-78
2021/06/06 09:03:50;;;;;;;6.97;6.28;;;;;;;20.25;64.29;96829.59;1781951;80;20944;-78
2021/06/06 09:06:20;;;;;;;5.95;5.35;;;;;;;20.55;63.22;96827.61;1757287;80;20931;-77
2021/06/06 09:08:47;;;;;;;;;;;;;;;20.77;64.06;96825.64;1782788;80;20972;-77
2021/06/06 09:11:15;;;;;;;5.45;4.95;;;;;;;20.97;63.66;96833.42;1780052;80;20093;-77
2021/06/06 09:13:40;;;;;;;5.50;4.90;;;;;;;21.01;60.70;96832.97;1769816;80;20968;-78
2021/06/06 09:16:17;;;;;;;5.92;5.30;;;;;;;20.86;61.12;96837.45;1762482;81;20932;-77
2021/06/06 09:18:47;;;;;;;8.93;5.47;;;;;;;20.67;60.75;96842.91;1772140;80;20977;-78
2021/06/06 09:21:18;;;;;;;5.83;5.33;;;;;;;20.68;60.97;96835.80;1780395;80;20912;-78
2021/06/06 09:23:45;;;;;;;5.90;5.30;;;;;;;20.86;60.50;96836.94;1780821;80;20924;-78
2021/06/06 09:26:25;;;;;;;5.45;4.60;;;;;;;21.06;60.89;96833.06;1777603;80;20909;-78
2021/06/06 09:29:22;;;;;;;5.53;4.97;;;;;;;20.95;60.59;96836.02;1777964;81;20929;-78
2021/06/06 09:31:48;;;;;;;5.80;4.72;;;;;;;20.96;60.41;96832.34;1751760;80;20999;-77
2021/06/06 09:34:24;;;;;;;5.42;4.92;;;;;;;21.10;60.11;96824.41;1773164;81;20917;-78
2021/06/06 09:37:15;;;;;;;5.53;5.03;;;;;;;21.19;59.66;96825.64;1774006;81;20977;-78
2021/06/06 09:39:45;;;;;;;5.85;5.35;;;;;;;21.07;58.75;96826.73;1774127;81;20968;-78
2021/06/06 09:42:21;;;;;;;5.35;4.85;;;;;;;21.23;59.21;96828.60;1777198;81;20952;-78
2021/06/06 09:45:02;;;;;;;6.22;5.72;;;;;;;21.33;58.89;96826.70;1776460;81;20905;-78
2021/06/06 09:47:27;;;;;;;5.50;5.00;;;;;;;21.50;58.63;96828.31;1718966;81;20992;-77
2021/06/06 09:50:01;;;;;;;5.70;5.20;;;;;;;21.50;58.44;96820.91;1773124;81;21008;-78
2021/06/06 09:52:46;;;;;;;5.58;5.15;;;;;;;21.63;57.68;96825.05;1753777;81;21009;-78
2021/06/06 09:55:22;;;;;;;5.55;5.05;;;;;;;21.72;58.37;96832.88;1764563;80;21286;-78
2021/06/06 09:57:48;;;;;;;4.90;4.50;;;;;;;21.75;58.28;96827.09;1752760;81;21020;-78
2021/06/06 10:00:22;;;;;;;5.95;5.50;;;;;;;21.79;56.42;96825.56;1778442;80;21017;-78
2021/06/06 10:03:02;;;;;;;6.50;5.45;;;;;;;21.66;57.49;96830.68;1777964;81;21008;-78
2021/06/06 10:05:36;;;;;;;5.95;5.45;;;;;;;21.55;58.13;96826.27;1775828;80;21270;-78
2021/06/06 10:08:06;;;;;;;5.00;4.60;;;;;;;21.67;56.66;96831.48;1770514;80;20996;-78
2021/06/06 10:10:39;;;;;;;5.78;5.12;;;;;;;21.72;56.91;96828.91;1775129;80;20951;-78
2021/06/06 10:13:10;;;;;;;5.15;4.75;;;;;;;21.82;56.55;96821.13;1759633;81;21277;-78
2021/06/06 10:15:52;;;;;;;5.97;4.65;;;;;;;21.96;56.98;96823.70;1751634;81;20926;-78
2021/06/06 10:18:32;;;;;;;5.42;4.85;;;;;;;21.77;56.14;96821.84;1767962;80;20919;-78
2021/06/06 10:21:12;;;;;;;5.10;4.70;;;;;;;21.88;57.42;96830.73;1776313;80;21264;-78
2021/06/06 10:23:48;;;;;;;5.65;5.10;;;;;;;21.99;54.68;96823.23;1777619;81;20893;-79
2021/06/06 10:26:34;;;;;;;4.65;4.25;;;;;;;22.03;54.90;96822.22;1757012;80;21021;-78
2021/06/06 10:29:14;;;;;;;4.67;4.28;;;;;;;22.07;54.03;96817.55;1764346;80;20944;-78
2021/06/06 10:31:42;;;;;;;5.03;4.62;;;;;;;22.19;55.89;96815.33;1711900;82;21050;-78
2021/06/06 10:34:31;;;;;;;5.08;4.67;;;;;;;22.21;55.18;96810.58;1759179;81;20983;-78
2021/06/06 10:36:57;;;;;;;5.28;4.60;;;;;;;22.15;55.00;96818.47;1724050;81;21143;-78
2021/06/06 10:39:27;;;;;;;4.95;4.10;;;;;;;22.23;53.70;96809.28;1781617;80;20940;-78
2021/06/06 10:42:08;;;;;;;4.50;3.90;;;;;;;22.31;53.68;96806.23;1780638;80;20975;-78
2021/06/06 10:45:03;;;;;;;3.90;3.60;;;;;;;22.37;52.64;96803.91;1761037;81;20971;-78
2021/06/06 10:48:00;;;;;;;4.20;3.80;;;;;;;22.48;52.95;96815.96;1778746;80;20932;-78
2021/06/06 10:50:32;;;;;;;4.20;3.80;;;;;;;22.53;52.82;96814.16;1736844;81;20977;-77
2021/06/06 10:53:23;;;;;;;4.35;3.60;;;;;;;22.64;52.57;96811.92;1775871;81;21007;-79
2021/06/06 10:56:13;;;;;;;4.45;3.83;;;;;;;22.71;52.44;96815.16;1779957;80;21222;-82
2021/06/06 10:58:53;;;;;;;4.17;3.77;;;;;;;22.83;52.62;96812.42;1780975;80;20944;-81
2021/06/06 11:01:27;;;;;;;3.87;3.58;;;;;;;22.89;50.71;96806.64;1779845;80;21238;-81
2021/06/06 11:04:06;;;;;;;4.17;3.87;;;;;;;22.85;50.39;96806.34;1773742;80;20928;-81
2021/06/06 11:06:34;;;;;;;3.45;3.15;;;;;;;22.90;51.54;96808.23;1775081;80;20980;-82
2021/06/06 11:09:02;;;;;;;3.47;3.17;;;;;;;22.91;49.63;96807.98;1755894;80;21369;-81
2021/06/06 11:11:36;;;;;;;3.80;3.40;;;;;;;22.93;49.55;96812.51;1766948;80;20952;-81
2021/06/06 11:14:15;;;;;;;4.10;3.55;;;;;;;22.97;49.77;96810.19;1776381;80;20903;-82
2021/06/06 11:16:50;;;;;;;4.00;3.60;;;;;;;23.11;50.82;96806.09;1780579;80;20988;-82
2021/06/06 11:19:24;;;;;;;3.75;3.45;;;;;;;23.19;48.87;96796.87;1778219;80;21313;-78
2021/06/06 11:22:07;;;;;;;3.47;3.17;;;;;;;23.25;49.75;96806.45;1765258;81;20959;-79
2021/06/06 11:24:45;;;;;;;3.75;3.25;;;;;;;23.23;48.28;96796.62;1761593;80;20956;-78
2021/06/06 11:27:29;;;;;;;4.35;3.05;;;;;;;23.27;50.30;96798.55;1777936;80;20934;-78
2021/06/06 11:30:24;;;;;;;4.65;3.58;;;;;;;23.32;48.44;96799.91;1770205;80;20921;-78
2021/06/06 11:33:11;;;;;;;3.52;3.22;;;;;;;23.39;48.53;96798.89;1768440;80;20967;-78
2021/06/06 11:35:42;;;;;;;4.40;3.52;;;;;;;23.51;48.30;96798.20;1745036;80;20901;-78
2021/06/06 11:38:45;;;;;;;3.72;2.87;;;;;;;23.57;48.75;96794.55;1772474;80;21011;-78
2021/06/06 11:41:31;;;;;;;3.40;3.10;;;;;;;23.56;47.77;96787.09;1760107;80;21317;-79
2021/06/06 11:44:14;;;;;;;3.22;2.98;;;;;;;23.55;47.85;96790.80;1759094;80;21308;-79
2021/06/06 11:46:59;;;;;;;3.15;2.75;;;;;;;23.56;47.63;96790.27;1782415;80;20955;-78
2021/06/06 11:49:57;;;;;;;3.98;3.15;;;;;;;23.60;45.43;96783.45;1761849;80;20889;-79
2021/06/06 11:52:49;;;;;;;3.20;2.83;;;;;;;23.61;46.92;96779.22;1764403;80;20973;-78